createdAt,value
2023-01-10T00:00:57.224Z,15.77
2023-01-10T00:03:27.708Z,17.40
2023-01-10T00:05:54.672Z,16.43
2023-01-10T00:08:21.904Z,18.13
2023-01-10T00:10:48.847Z,17.00
2023-01-10T00:13:26.497Z,19.00
2023-01-10T00:15:55.729Z,17.23
2023-01-10T00:18:23.472Z,16.83
2023-01-10T00:20:50.647Z,17.67
2023-01-10T00:23:18.558Z,18.77
2023-01-10T00:25:46.136Z,19.50
2023-01-10T00:28:19.786Z,18.97
2023-01-10T00:30:55.011Z,20.53
2023-01-10T00:33:22.426Z,19.57
2023-01-10T00:35:49.506Z,21.27
2023-01-10T00:38:16.951Z,20.17
2023-01-10T00:40:44.443Z,20.97
2023-01-10T00:43:30.552Z,20.27
2023-01-10T00:45:58.087Z,23.73
2023-01-10T00:48:25.643Z,20.50
2023-01-10T00:50:52.597Z,20.07
2023-01-10T00:53:19.839Z,21.23
2023-01-10T00:55:46.844Z,20.70
2023-01-10T00:58:15.198Z,20.60
2023-01-10T01:00:46.891Z,19.77
2023-01-10T01:03:14.156Z,21.67
2023-01-10T01:05:46.163Z,20.00
2023-01-10T01:08:15.190Z,20.20
2023-01-10T01:10:42.293Z,21.70
2023-01-10T01:13:14.999Z,20.20
2023-01-10T01:15:42.229Z,20.63
2023-01-10T01:18:14.721Z,20.93
2023-01-10T01:20:42.658Z,21.00
2023-01-10T01:23:09.971Z,21.30
2023-01-10T01:25:37.004Z,19.03
2023-01-10T01:28:04.391Z,20.43
2023-01-10T01:30:31.615Z,19.70
2023-01-10T01:32:58.857Z,19.30
2023-01-10T01:35:26.120Z,19.40
2023-01-10T01:37:53.298Z,19.33
2023-01-10T01:40:22.431Z,21.87
2023-01-10T01:42:55.591Z,21.13
2023-01-10T01:45:37.189Z,21.30
2023-01-10T01:48:38.023Z,21.10
2023-01-10T01:51:18.993Z,19.47
2023-01-10T01:54:13.280Z,20.83
2023-01-10T01:56:46.432Z,20.20
2023-01-10T01:59:22.456Z,20.47
2023-01-10T02:01:52.973Z,21.87
2023-01-10T02:04:28.713Z,21.63
2023-01-10T02:06:58.549Z,21.10
2023-01-10T02:09:53.275Z,22.23
2023-01-10T02:12:20.615Z,22.57
2023-01-10T02:14:50.561Z,21.13
2023-01-10T02:17:17.566Z,21.20
2023-01-10T02:19:52.008Z,22.00
2023-01-10T02:22:39.802Z,20.90
2023-01-10T02:25:23.978Z,22.20
2023-01-10T02:28:21.480Z,22.13
2023-01-10T02:31:13.062Z,22.47
2023-01-10T02:33:59.060Z,22.10
2023-01-10T02:37:05.117Z,21.73
2023-01-10T02:39:51.719Z,24.07
2023-01-10T02:42:31.048Z,23.50
2023-01-10T02:45:08.461Z,23.83
2023-01-10T02:47:39.806Z,21.90
2023-01-10T02:50:34.095Z,24.20
2023-01-10T02:53:06.264Z,23.77
2023-01-10T02:55:57.838Z,21.83
2023-01-10T02:59:03.398Z,22.73
2023-01-10T03:02:01.129Z,23.07
2023-01-10T03:04:45.667Z,20.70
2023-01-10T03:07:29.984Z,21.83
2023-01-10T03:10:03.355Z,22.27
2023-01-10T03:12:46.139Z,21.70
2023-01-10T03:15:16.644Z,22.67
2023-01-10T03:17:47.834Z,20.53
2023-01-10T03:20:17.309Z,20.90
2023-01-10T03:22:45.047Z,21.57
2023-01-10T03:25:15.568Z,21.27
2023-01-10T03:27:52.219Z,21.33
2023-01-10T03:30:28.970Z,22.17
2023-01-10T03:32:58.136Z,20.10
2023-01-10T03:35:52.143Z,21.00
2023-01-10T03:38:33.487Z,19.13
2023-01-10T03:41:17.005Z,19.97
2023-01-10T03:44:25.334Z,20.37
2023-01-10T03:47:18.299Z,21.10
2023-01-10T03:49:49.281Z,19.57
2023-01-10T03:52:18.975Z,19.07
2023-01-10T03:54:47.548Z,21.00
2023-01-10T03:57:23.551Z,20.27
2023-01-10T03:59:58.024Z,17.83
2023-01-10T04:02:31.228Z,19.00
2023-01-10T04:04:59.084Z,19.00
2023-01-10T04:07:26.717Z,17.97
2023-01-10T04:09:53.951Z,19.20
2023-01-10T04:12:21.434Z,19.60
2023-01-10T04:14:48.409Z,19.40
2023-01-10T04:17:16.862Z,18.50
2023-01-10T04:19:44.296Z,19.50
2023-01-10T04:22:12.555Z,17.97
2023-01-10T04:24:40.276Z,18.40
2023-01-10T04:27:07.848Z,18.30
2023-01-10T04:29:34.883Z,18.83
2023-01-10T04:32:02.185Z,19.33
2023-01-10T04:34:29.220Z,19.23
2023-01-10T04:36:56.445Z,18.93
2023-01-10T04:39:23.416Z,19.67
2023-01-10T04:41:50.750Z,19.83
2023-01-10T04:44:17.681Z,19.47
2023-01-10T04:46:45.596Z,19.97
2023-01-10T04:49:12.656Z,19.00
2023-01-10T04:51:40.778Z,19.90
2023-01-10T04:54:07.778Z,20.37
2023-01-10T04:56:35.211Z,22.07
2023-01-10T04:59:02.277Z,19.47
2023-01-10T05:01:29.641Z,19.50
2023-01-10T05:03:57.054Z,20.47
2023-01-10T05:06:25.038Z,18.23
2023-01-10T05:08:53.201Z,20.53
2023-01-10T05:11:20.411Z,20.00
2023-01-10T05:13:48.223Z,20.13
2023-01-10T05:16:15.888Z,20.40
2023-01-10T05:18:42.952Z,20.00
2023-01-10T05:21:12.494Z,21.07
2023-01-10T05:23:40.219Z,19.13
2023-01-10T05:26:12.126Z,19.97
2023-01-10T05:28:39.931Z,20.10
2023-01-10T05:31:08.746Z,20.90
2023-01-10T05:33:36.419Z,20.40
2023-01-10T05:36:05.919Z,20.57
2023-01-10T05:38:33.657Z,20.57
2023-01-10T05:41:01.460Z,21.57
2023-01-10T05:43:28.989Z,23.63
2023-01-10T05:45:56.421Z,20.20
2023-01-10T05:48:23.837Z,23.07
2023-01-10T05:50:51.741Z,21.73
2023-01-10T05:53:19.755Z,22.93
2023-01-10T05:55:58.219Z,23.73
2023-01-10T05:58:25.886Z,21.27
2023-01-10T06:00:55.125Z,23.20
2023-01-10T06:03:22.948Z,21.60
2023-01-10T06:05:50.108Z,23.80
2023-01-10T06:08:17.258Z,22.73
2023-01-10T06:10:44.607Z,24.27
2023-01-10T06:13:12.356Z,22.13
2023-01-10T06:15:40.113Z,23.63
2023-01-10T06:18:07.726Z,23.33
2023-01-10T06:20:35.635Z,23.07
2023-01-10T06:23:04.818Z,23.57
2023-01-10T06:25:37.673Z,22.47
2023-01-10T06:28:04.729Z,23.47
2023-01-10T06:30:32.125Z,22.10
2023-01-10T06:33:03.765Z,23.07
2023-01-10T06:35:31.706Z,24.47
2023-01-10T06:37:59.586Z,22.20
2023-01-10T06:40:27.682Z,23.23
2023-01-10T06:42:54.703Z,23.40
2023-01-10T06:45:21.944Z,24.70
2023-01-10T06:47:48.896Z,24.17
2023-01-10T06:50:16.492Z,23.03
2023-01-10T06:52:43.545Z,22.70
2023-01-10T06:55:11.080Z,21.83
2023-01-10T06:57:38.640Z,24.30
2023-01-10T07:00:10.510Z,24.37
2023-01-10T07:02:37.593Z,22.37
2023-01-10T07:05:05.118Z,24.67
2023-01-10T07:07:32.143Z,23.03
2023-01-10T07:09:59.900Z,27.97
2023-01-10T07:12:26.975Z,25.07
2023-01-10T07:14:54.307Z,23.80
2023-01-10T07:17:21.407Z,23.93
2023-01-10T07:19:48.721Z,23.50
2023-01-10T07:22:16.775Z,22.80
2023-01-10T07:24:44.036Z,24.03
2023-01-10T07:27:10.995Z,21.47
2023-01-10T07:29:38.409Z,23.77
2023-01-10T07:32:05.983Z,22.07
2023-01-10T07:34:33.266Z,22.13
2023-01-10T07:37:02.073Z,23.73
2023-01-10T07:39:29.437Z,21.97
2023-01-10T07:41:56.524Z,22.57
2023-01-10T07:44:24.243Z,22.13
2023-01-10T07:46:51.293Z,21.30
2023-01-10T07:49:18.656Z,20.93
2023-01-10T07:51:46.159Z,22.23
2023-01-10T07:54:14.877Z,20.17
2023-01-10T07:56:41.982Z,22.63
2023-01-10T07:59:09.284Z,21.37
2023-01-10T08:01:36.237Z,20.90
2023-01-10T08:04:03.545Z,22.33
2023-01-10T08:06:30.532Z,21.33
2023-01-10T08:08:57.884Z,22.37
2023-01-10T08:11:24.880Z,23.43
2023-01-10T08:13:52.061Z,21.43
2023-01-10T08:16:20.915Z,23.40
2023-01-10T08:18:48.331Z,20.67
2023-01-10T08:21:15.364Z,19.87
2023-01-10T08:23:42.686Z,20.87
2023-01-10T08:26:09.674Z,21.57
2023-01-10T08:28:36.890Z,21.43
2023-01-10T08:31:12.923Z,21.43
2023-01-10T08:33:41.005Z,21.77
2023-01-10T08:36:16.560Z,20.27
2023-01-10T08:38:44.111Z,21.97
2023-01-10T08:41:11.244Z,20.27
2023-01-10T08:43:38.651Z,20.10
2023-01-10T08:46:05.728Z,21.77
2023-01-10T08:48:33.688Z,21.00
2023-01-10T08:51:06.226Z,22.27
2023-01-10T08:53:33.467Z,21.10
2023-01-10T08:56:00.492Z,21.43
2023-01-10T08:58:27.906Z,21.33
2023-01-10T09:00:54.992Z,21.03
2023-01-10T09:03:22.401Z,20.37
2023-01-10T09:05:49.582Z,19.77
2023-01-10T09:08:17.095Z,21.40
2023-01-10T09:10:44.116Z,22.13
2023-01-10T09:13:11.527Z,22.30
2023-01-10T09:15:38.796Z,19.73
2023-01-10T09:18:07.795Z,19.23
2023-01-10T09:20:37.354Z,20.27
2023-01-10T09:23:12.808Z,18.73
2023-01-10T09:25:39.816Z,19.37
2023-01-10T09:28:07.194Z,20.10
2023-01-10T09:30:34.311Z,20.37
2023-01-10T09:33:01.903Z,21.27
2023-01-10T09:35:30.666Z,19.90
2023-01-10T09:38:03.225Z,18.83
2023-01-10T09:40:41.965Z,19.53
2023-01-10T09:43:20.619Z,19.40
2023-01-10T09:45:56.484Z,19.17
2023-01-10T09:48:42.797Z,19.37
2023-01-10T09:51:23.815Z,19.10
2023-01-10T09:53:57.795Z,17.47
2023-01-10T09:56:29.532Z,19.90
2023-01-10T09:58:58.715Z,22.20
2023-01-10T10:01:36.369Z,20.17
2023-01-10T10:04:16.084Z,18.63
2023-01-10T10:07:22.917Z,19.80
2023-01-10T10:10:25.859Z,19.07
2023-01-10T10:13:11.657Z,20.00
2023-01-10T10:15:44.113Z,19.13
2023-01-10T10:18:55.438Z,19.50
2023-01-10T10:21:41.128Z,17.73
2023-01-10T10:24:42.305Z,17.33
2023-01-10T10:28:09.484Z,17.97
2023-01-10T10:31:21.830Z,19.13
2023-01-10T10:34:36.592Z,18.47
2023-01-10T10:37:49.300Z,18.40
2023-01-10T10:40:46.677Z,19.17
2023-01-10T10:43:38.135Z,17.47
2023-01-10T10:46:25.399Z,20.67
2023-01-10T10:49:33.189Z,21.43
2023-01-10T10:52:54.994Z,19.70
2023-01-10T10:56:16.739Z,19.50
2023-01-10T10:59:05.056Z,19.20
2023-01-10T11:01:52.440Z,19.87
2023-01-10T11:04:39.789Z,21.17
2023-01-10T11:07:29.577Z,23.63
2023-01-10T11:10:38.427Z,22.20
2023-01-10T11:13:32.613Z,19.77
2023-01-10T11:16:27.394Z,19.90
2023-01-10T11:19:22.024Z,19.73
2023-01-10T11:22:29.014Z,19.40
2023-01-10T11:25:19.386Z,19.27
2023-01-10T11:28:01.844Z,21.43
2023-01-10T11:30:32.317Z,19.90
2023-01-10T11:33:06.124Z,22.90
2023-01-10T11:35:37.101Z,19.67
2023-01-10T11:38:24.538Z,19.30
2023-01-10T11:41:02.315Z,17.47
2023-01-10T11:43:34.029Z,17.83
2023-01-10T11:46:12.367Z,18.80
2023-01-10T11:49:06.817Z,18.37
2023-01-10T11:51:45.913Z,17.07
2023-01-10T11:54:12.913Z,17.90
2023-01-10T11:56:41.589Z,16.93
2023-01-10T11:59:18.814Z,15.87
2023-01-10T12:01:48.077Z,18.47
2023-01-10T12:04:17.249Z,16.67
2023-01-10T12:06:55.730Z,16.33
2023-01-10T12:09:54.508Z,18.00
2023-01-10T12:12:34.999Z,18.13
2023-01-10T12:15:29.647Z,17.20
2023-01-10T12:18:00.231Z,17.50
2023-01-10T12:20:31.307Z,16.77
2023-01-10T12:23:15.221Z,15.73
2023-01-10T12:25:44.530Z,14.07
2023-01-10T12:28:23.054Z,16.57
2023-01-10T12:30:51.976Z,17.50
2023-01-10T12:33:46.522Z,17.33
2023-01-10T12:36:41.084Z,16.00
2023-01-10T12:39:16.367Z,16.33
2023-01-10T12:42:05.318Z,15.37
2023-01-10T12:44:39.580Z,14.77
2023-01-10T12:47:32.669Z,15.57
2023-01-10T12:50:21.579Z,14.50
2023-01-10T12:52:52.411Z,16.40
2023-01-10T12:55:22.627Z,14.40
2023-01-10T12:57:56.570Z,14.70
2023-01-10T13:00:32.794Z,15.00
2023-01-10T13:03:06.275Z,14.60
2023-01-10T13:05:34.466Z,14.40
2023-01-10T13:08:07.223Z,14.93
2023-01-10T13:10:40.179Z,13.47
2023-01-10T13:13:33.940Z,14.60
2023-01-10T13:16:22.357Z,13.90
2023-01-10T13:19:10.767Z,13.83
2023-01-10T13:21:42.311Z,14.00
2023-01-10T13:24:15.292Z,17.07
2023-01-10T13:27:03.247Z,16.73
2023-01-10T13:29:38.941Z,13.70
2023-01-10T13:32:26.024Z,13.53
2023-01-10T13:34:53.538Z,16.27
2023-01-10T13:37:30.006Z,17.03
2023-01-10T13:39:59.177Z,15.60
2023-01-10T13:42:55.227Z,15.57
2023-01-10T13:45:29.721Z,17.27
2023-01-10T13:48:03.600Z,15.53
2023-01-10T13:50:34.154Z,16.50
2023-01-10T13:53:01.432Z,15.90
2023-01-10T13:55:42.584Z,16.77
2023-01-10T13:58:09.803Z,16.73
2023-01-10T14:00:55.780Z,15.03
2023-01-10T14:03:44.993Z,17.77
2023-01-10T14:06:30.869Z,14.93
2023-01-10T14:08:59.563Z,15.70
2023-01-10T14:11:34.604Z,15.53
2023-01-10T14:14:03.029Z,15.50
2023-01-10T14:19:32.370Z,14.97
2023-01-10T14:22:01.796Z,14.83
2023-01-10T14:24:51.763Z,14.93
2023-01-10T14:27:21.741Z,15.33
2023-01-10T14:29:57.237Z,16.47
2023-01-10T14:32:30.113Z,15.43
2023-01-10T14:35:00.506Z,15.97
2023-01-10T14:37:37.767Z,15.10
2023-01-10T14:40:12.461Z,15.23
2023-01-10T14:42:39.777Z,14.70
2023-01-10T14:45:26.014Z,14.00
2023-01-10T14:47:54.057Z,12.60
2023-01-10T14:50:27.852Z,15.03
2023-01-10T14:52:56.209Z,14.27
2023-01-10T14:55:23.775Z,13.20
2023-01-10T14:58:02.008Z,13.33
2023-01-10T15:00:34.345Z,13.70
2023-01-10T15:03:04.221Z,12.07
2023-01-10T15:05:37.162Z,14.00
2023-01-10T15:08:23.004Z,14.27
2023-01-10T15:10:54.703Z,13.23
2023-01-10T15:13:28.212Z,13.20
2023-01-10T15:15:56.478Z,12.47
2023-01-10T15:18:26.179Z,12.83
2023-01-10T15:20:53.914Z,11.50
2023-01-10T15:23:21.026Z,11.40
2023-01-10T15:25:57.433Z,11.97
2023-01-10T15:28:24.431Z,10.87
2023-01-10T15:30:51.707Z,12.23
2023-01-10T15:33:29.181Z,11.63
2023-01-10T15:36:02.604Z,11.27
2023-01-10T15:38:34.119Z,10.50
2023-01-10T15:41:03.607Z,11.63
2023-01-10T15:43:32.469Z,10.40
2023-01-10T15:46:02.323Z,11.37
2023-01-10T15:48:43.906Z,11.50
2023-01-10T15:51:27.971Z,11.30
2023-01-10T15:54:19.321Z,10.10
2023-01-10T15:56:51.332Z,11.20
2023-01-10T15:59:32.815Z,11.43
2023-01-10T16:02:08.934Z,10.63
2023-01-10T16:04:36.707Z,11.17
2023-01-10T16:07:29.095Z,11.60
2023-01-10T16:10:24.312Z,10.87
2023-01-10T16:13:10.101Z,10.53
2023-01-10T16:15:40.867Z,11.83
2023-01-10T16:18:08.415Z,11.67
2023-01-10T16:20:46.258Z,12.23
2023-01-10T16:23:22.251Z,11.27
2023-01-10T16:25:55.552Z,11.63
2023-01-10T16:28:24.120Z,11.27
2023-01-10T16:30:51.087Z,12.53
2023-01-10T16:33:24.682Z,12.07
2023-01-10T16:36:01.134Z,11.67
2023-01-10T16:38:29.543Z,12.47
2023-01-10T16:41:21.776Z,12.33
2023-01-10T16:43:49.937Z,13.73
2023-01-10T16:46:17.973Z,13.37
2023-01-10T16:48:47.508Z,13.90
2023-01-10T16:51:19.018Z,12.90
2023-01-10T16:53:47.124Z,15.20
2023-01-10T16:56:16.673Z,13.43
2023-01-10T16:58:43.911Z,13.63
2023-01-10T17:01:19.940Z,13.50
2023-01-10T17:03:47.792Z,13.43
2023-01-10T17:06:15.908Z,13.87
2023-01-10T17:08:44.749Z,16.13
2023-01-10T17:11:22.404Z,15.03
2023-01-10T17:13:49.736Z,15.33
2023-01-10T17:16:19.481Z,15.33
2023-01-10T17:18:47.994Z,14.60
2023-01-10T17:21:19.949Z,15.47
2023-01-10T17:23:47.629Z,16.03
2023-01-10T17:26:16.847Z,15.90
2023-01-10T17:28:49.772Z,16.23
2023-01-10T17:31:20.417Z,16.10
2023-01-10T17:33:49.261Z,15.83
2023-01-10T17:36:19.029Z,13.97
2023-01-10T17:38:46.633Z,15.53
2023-01-10T17:41:13.627Z,15.73
2023-01-10T17:43:40.890Z,14.33
2023-01-10T17:46:07.952Z,13.83
2023-01-10T17:48:36.019Z,13.40
2023-01-10T17:51:03.969Z,13.60
2023-01-10T17:53:31.702Z,14.17
2023-01-10T17:56:01.083Z,13.17
2023-01-10T17:58:29.834Z,11.37
2023-01-10T18:00:57.091Z,13.47
2023-01-10T18:03:25.051Z,11.93
2023-01-10T18:05:56.810Z,13.20
2023-01-10T18:08:25.086Z,14.00
2023-01-10T18:10:58.015Z,12.10
2023-01-10T18:13:30.175Z,11.97
2023-01-10T18:15:57.602Z,11.70
2023-01-10T18:18:29.339Z,11.57
2023-01-10T18:21:00.836Z,10.97
2023-01-10T18:23:28.302Z,11.63
2023-01-10T18:26:00.169Z,11.50
2023-01-10T18:28:40.600Z,11.83
2023-01-10T18:31:15.858Z,11.90
2023-01-10T18:33:44.117Z,11.73
2023-01-10T18:36:16.559Z,10.73
2023-01-10T18:38:45.932Z,11.67
2023-01-10T18:41:14.541Z,11.93
2023-01-10T18:43:41.858Z,11.73
2023-01-10T18:46:20.960Z,11.00
2023-01-10T18:48:51.089Z,10.93
2023-01-10T18:51:19.287Z,11.70
2023-01-10T18:53:47.672Z,10.53
2023-01-10T18:56:14.960Z,10.87
2023-01-10T18:58:42.987Z,9.90
2023-01-10T19:01:16.156Z,11.30
2023-01-10T19:03:45.297Z,10.80
2023-01-10T19:06:16.072Z,10.53
2023-01-10T19:08:44.603Z,10.20
2023-01-10T19:11:15.245Z,10.77
2023-01-10T19:13:44.391Z,10.87
2023-01-10T19:16:13.135Z,10.10
2023-01-10T19:18:41.091Z,9.77
2023-01-10T19:21:14.927Z,10.70
2023-01-10T19:23:43.933Z,9.90
2023-01-10T19:26:11.890Z,10.63
2023-01-10T19:28:39.163Z,10.57
2023-01-10T19:31:06.407Z,9.23
2023-01-10T19:33:34.800Z,9.27
2023-01-10T19:36:09.087Z,9.03
2023-01-10T19:38:36.582Z,10.03
2023-01-10T19:41:03.810Z,10.00
2023-01-10T19:43:31.183Z,9.40
2023-01-10T19:45:58.312Z,9.73
2023-01-10T19:48:25.770Z,9.83
2023-01-10T19:50:52.808Z,8.97
2023-01-10T19:53:23.843Z,9.17
2023-01-10T19:56:02.615Z,10.07
2023-01-10T19:58:29.643Z,9.60
2023-01-10T20:00:56.925Z,9.30
2023-01-10T20:03:24.533Z,9.13
2023-01-10T20:05:51.914Z,10.07
2023-01-10T20:08:18.941Z,10.90
2023-01-10T20:10:46.193Z,9.80
2023-01-10T20:13:13.101Z,10.43
2023-01-10T20:15:40.444Z,10.10
2023-01-10T20:18:07.492Z,9.20
2023-01-10T20:20:35.391Z,9.57
2023-01-10T20:23:02.292Z,9.17
2023-01-10T20:25:29.679Z,9.90
2023-01-10T20:27:56.663Z,8.23
2023-01-10T20:30:23.977Z,8.77
2023-01-10T20:32:51.186Z,9.13
2023-01-10T20:35:22.044Z,8.87
2023-01-10T20:37:48.979Z,9.50
2023-01-10T20:40:16.542Z,8.27
2023-01-10T20:42:44.258Z,9.63
2023-01-10T20:45:11.526Z,9.07
2023-01-10T20:47:38.518Z,10.43
2023-01-10T20:50:06.283Z,9.67
2023-01-10T20:52:33.284Z,9.87
2023-01-10T20:55:00.524Z,10.70
2023-01-10T20:57:28.162Z,14.47
2023-01-10T20:59:55.352Z,12.87
2023-01-10T21:02:22.323Z,14.47
2023-01-10T21:04:50.636Z,16.00
2023-01-10T21:07:17.796Z,15.10
2023-01-10T21:09:45.074Z,18.73
2023-01-10T21:12:22.769Z,19.50
2023-01-10T21:14:52.485Z,19.97
2023-01-10T21:17:20.753Z,22.57
2023-01-10T21:19:47.957Z,22.97
2023-01-10T21:22:15.091Z,24.13
2023-01-10T21:24:43.037Z,25.33
2023-01-10T21:27:10.148Z,24.40
2023-01-10T21:29:37.363Z,24.20
2023-01-10T21:32:05.909Z,24.83
2023-01-10T21:34:33.082Z,24.47
2023-01-10T21:37:00.127Z,25.33
2023-01-10T21:39:27.328Z,26.37
2023-01-10T21:42:12.672Z,24.17
2023-01-10T21:44:39.862Z,25.20
2023-01-10T21:47:06.891Z,27.90
2023-01-10T21:49:34.126Z,25.47
2023-01-10T21:52:01.060Z,25.67
2023-01-10T21:54:28.322Z,26.23
2023-01-10T21:56:55.440Z,24.40
2023-01-10T21:59:24.289Z,23.87
2023-01-10T22:01:51.522Z,26.07
2023-01-10T22:04:18.823Z,24.90
2023-01-10T22:06:46.544Z,23.60
2023-01-10T22:09:13.817Z,22.40
2023-01-10T22:11:40.792Z,21.27
2023-01-10T22:14:08.024Z,22.10
2023-01-10T22:16:35.036Z,19.97
2023-01-10T22:19:02.312Z,21.00
2023-01-10T22:21:29.280Z,19.53
2023-01-10T22:23:56.500Z,18.50
2023-01-10T22:26:23.492Z,19.63
2023-01-10T22:28:50.723Z,19.13
2023-01-10T22:31:17.756Z,17.73
2023-01-10T22:33:44.993Z,18.33
2023-01-10T22:36:16.959Z,17.13
2023-01-10T22:38:45.419Z,18.93
2023-01-10T22:41:18.296Z,17.60
2023-01-10T22:43:46.505Z,18.27
2023-01-10T22:46:16.748Z,17.73
2023-01-10T22:48:44.043Z,18.43
2023-01-10T22:51:11.386Z,18.80
2023-01-10T22:53:38.690Z,17.30
2023-01-10T22:56:09.189Z,18.23
2023-01-10T22:58:37.537Z,18.87
2023-01-10T23:01:08.140Z,18.30
2023-01-10T23:03:35.459Z,19.10
2023-01-10T23:06:02.449Z,16.63
2023-01-10T23:08:29.749Z,16.60
2023-01-10T23:10:56.724Z,15.93
2023-01-10T23:13:24.992Z,16.13
2023-01-10T23:16:12.306Z,15.20
2023-01-10T23:18:39.900Z,15.13
2023-01-10T23:21:07.104Z,15.57
2023-01-10T23:23:34.882Z,14.73
2023-01-10T23:26:06.516Z,15.37
2023-01-10T23:28:46.720Z,16.63
2023-01-10T23:31:20.077Z,15.87
2023-01-10T23:33:48.389Z,15.30
2023-01-10T23:36:16.159Z,16.03
2023-01-10T23:38:43.774Z,16.03
2023-01-10T23:41:10.970Z,15.43
2023-01-10T23:43:38.334Z,16.33
2023-01-10T23:46:06.632Z,17.30
2023-01-10T23:48:34.658Z,16.63
2023-01-10T23:51:01.647Z,18.40
2023-01-10T23:53:28.868Z,16.73
2023-01-10T23:55:55.806Z,16.03
2023-01-10T23:58:23.005Z,16.83
